createdAt,value
2018-01-04T00:00:58.004Z,7.39
2018-01-04T00:01:57.999Z,7.28
2018-01-04T00:02:57.994Z,7.42
2018-01-04T00:03:57.989Z,7.30
2018-01-04T00:04:57.990Z,7.34
2018-01-04T00:05:57.979Z,7.34
2018-01-04T00:06:57.975Z,7.39
2018-01-04T00:07:57.970Z,7.27
2018-01-04T00:08:57.968Z,7.40
2018-01-04T00:09:57.958Z,7.39
2018-01-04T00:10:57.956Z,7.40
2018-01-04T00:11:57.950Z,7.31
2018-01-04T00:12:57.946Z,7.31
2018-01-04T00:13:57.941Z,7.28
2018-01-04T00:14:57.938Z,7.30
2018-01-04T00:15:57.931Z,7.27
2018-01-04T00:16:57.927Z,7.30
2018-01-04T00:17:57.922Z,7.43
2018-01-04T00:18:57.917Z,7.32
2018-01-04T00:19:57.912Z,7.34
2018-01-04T00:20:57.904Z,7.28
2018-01-04T00:21:57.902Z,7.31
2018-01-04T00:22:57.898Z,7.32
2018-01-04T00:23:57.902Z,7.34
2018-01-04T00:24:57.888Z,7.34
2018-01-04T00:25:57.883Z,7.27
2018-01-04T00:26:57.879Z,7.24
2018-01-04T00:27:57.895Z,7.30
2018-01-04T00:28:57.864Z,7.23
2018-01-04T00:29:57.866Z,7.25
2018-01-04T00:30:57.862Z,7.25
2018-01-04T00:31:57.856Z,7.32
2018-01-04T00:32:57.852Z,7.24
2018-01-04T00:33:57.851Z,7.35
2018-01-04T00:34:57.840Z,7.27
2018-01-04T00:35:57.836Z,7.27
2018-01-04T00:36:57.828Z,7.35
2018-01-04T00:37:57.828Z,7.28
2018-01-04T00:38:57.821Z,7.32
2018-01-04T00:39:57.817Z,7.30
2018-01-04T00:40:57.815Z,7.27
2018-01-04T00:41:57.808Z,7.27
2018-01-04T00:42:57.804Z,7.30
2018-01-04T00:43:57.804Z,7.24
2018-01-04T00:44:57.793Z,7.32
2018-01-04T00:45:57.788Z,7.28
2018-01-04T00:46:57.783Z,7.34
2018-01-04T00:47:57.780Z,7.28
2018-01-04T00:48:57.775Z,7.31
2018-01-04T00:49:57.767Z,7.23
2018-01-04T00:50:57.768Z,7.34
2018-01-04T00:51:57.764Z,7.35
2018-01-04T00:52:57.754Z,7.30
2018-01-04T00:53:57.749Z,7.25
2018-01-04T00:54:57.749Z,7.32
2018-01-04T00:55:57.741Z,7.24
2018-01-04T00:56:57.732Z,7.31
2018-01-04T00:57:57.733Z,7.30
2018-01-04T00:58:57.726Z,7.24
2018-01-04T00:59:57.726Z,7.23
2018-01-04T01:00:57.715Z,7.35
2018-01-04T01:01:57.714Z,7.31
2018-01-04T01:02:57.706Z,7.23
2018-01-04T01:03:57.703Z,7.21
2018-01-04T01:04:57.700Z,7.17
2018-01-04T01:05:57.693Z,7.15
2018-01-04T01:06:57.688Z,7.21
2018-01-04T01:07:57.683Z,7.23
2018-01-04T01:08:57.677Z,7.07
2018-01-04T01:09:57.673Z,7.16
2018-01-04T01:10:57.671Z,7.16
2018-01-04T01:11:57.670Z,7.17
2018-01-04T01:12:57.659Z,7.13
2018-01-04T01:13:57.669Z,7.17
2018-01-04T01:14:57.647Z,7.21
2018-01-04T01:15:57.644Z,7.12
2018-01-04T01:16:57.639Z,7.07
2018-01-04T01:17:57.636Z,7.10
2018-01-04T01:18:57.634Z,7.16
2018-01-04T01:19:57.630Z,7.07
2018-01-04T01:20:57.621Z,7.10
2018-01-04T01:21:57.616Z,7.17
2018-01-04T01:22:57.611Z,7.16
2018-01-04T01:23:57.606Z,7.17
2018-01-04T01:24:57.599Z,7.17
2018-01-04T01:25:57.597Z,7.32
2018-01-04T01:26:57.593Z,7.28
2018-01-04T01:27:57.594Z,7.31
2018-01-04T01:28:57.582Z,7.16
2018-01-04T01:29:57.576Z,7.20
2018-01-04T01:30:57.601Z,7.20
2018-01-04T01:31:57.571Z,7.31
2018-01-04T01:32:57.566Z,7.31
2018-01-04T01:33:57.559Z,7.25
2018-01-04T01:34:57.551Z,7.32
2018-01-04T01:35:57.549Z,7.35
2018-01-04T01:36:57.545Z,7.27
2018-01-04T01:37:57.539Z,7.30
2018-01-04T01:38:57.535Z,7.34
2018-01-04T01:39:57.533Z,7.28
2018-01-04T01:40:57.525Z,7.31
2018-01-04T01:41:57.520Z,7.32
2018-01-04T01:42:57.516Z,7.32
2018-01-04T01:43:57.512Z,7.37
2018-01-04T01:44:57.506Z,7.37
2018-01-04T01:45:57.501Z,7.27
2018-01-04T01:46:57.499Z,7.35
2018-01-04T01:47:57.494Z,7.27
2018-01-04T01:48:57.488Z,7.34
2018-01-04T01:49:57.482Z,7.39
2018-01-04T01:50:57.478Z,7.32
2018-01-04T01:51:57.474Z,7.31
2018-01-04T01:52:57.469Z,7.37
2018-01-04T01:53:57.462Z,7.37
2018-01-04T01:54:57.459Z,7.39
2018-01-04T01:55:57.456Z,7.42
2018-01-04T01:56:57.450Z,7.39
2018-01-04T01:57:57.444Z,7.39
2018-01-04T01:58:57.439Z,7.31
2018-01-04T01:59:57.434Z,7.34
2018-01-04T02:00:57.436Z,7.37
2018-01-04T02:01:57.427Z,7.39
2018-01-04T02:02:57.421Z,7.35
2018-01-04T02:03:57.416Z,7.31
2018-01-04T02:04:57.411Z,7.30
2018-01-04T02:05:57.405Z,7.35
2018-01-04T02:06:57.403Z,7.30
2018-01-04T02:07:57.400Z,7.24
2018-01-04T02:08:57.391Z,7.34
2018-01-04T02:09:57.387Z,7.37
2018-01-04T02:10:57.383Z,7.32
2018-01-04T02:11:57.380Z,7.21
2018-01-04T02:12:57.374Z,7.30
2018-01-04T02:13:57.369Z,7.17
2018-01-04T02:14:57.366Z,7.24
2018-01-04T02:15:57.360Z,7.35
2018-01-04T02:16:57.355Z,7.20
2018-01-04T02:17:57.351Z,7.17
2018-01-04T02:18:57.343Z,7.16
2018-01-04T02:19:57.341Z,7.12
2018-01-04T02:20:57.336Z,7.17
2018-01-04T02:21:57.333Z,7.21
2018-01-04T02:22:57.326Z,7.17
2018-01-04T02:23:57.348Z,7.07
2018-01-04T02:24:57.316Z,7.09
2018-01-04T02:25:57.307Z,7.20
2018-01-04T02:26:57.308Z,7.13
2018-01-04T02:27:57.303Z,7.07
2018-01-04T02:28:57.312Z,7.20
2018-01-04T02:29:57.295Z,7.16
2018-01-04T02:30:57.288Z,7.21
2018-01-04T02:31:57.284Z,7.20
2018-01-04T02:32:57.278Z,7.21
2018-01-04T02:33:57.273Z,7.17
2018-01-04T02:34:57.264Z,7.16
2018-01-04T02:35:57.265Z,7.13
2018-01-04T02:36:57.260Z,6.98
2018-01-04T02:37:57.259Z,6.99
2018-01-04T02:38:57.250Z,6.99
2018-01-04T02:39:57.246Z,6.88
2018-01-04T02:40:57.243Z,6.87
2018-01-04T02:41:57.235Z,6.91
2018-01-04T02:42:57.237Z,6.84
2018-01-04T02:43:57.225Z,6.87
2018-01-04T02:44:57.220Z,6.73
2018-01-04T02:45:57.218Z,6.69
2018-01-04T02:46:57.274Z,6.73
2018-01-04T02:47:57.208Z,6.67
2018-01-04T02:48:57.201Z,6.62
2018-01-04T02:49:57.197Z,6.62
2018-01-04T02:50:57.189Z,6.62
2018-01-04T02:51:57.186Z,6.54
2018-01-04T02:52:57.181Z,6.52
2018-01-04T02:53:57.175Z,6.48
2018-01-04T02:54:57.172Z,6.54
2018-01-04T02:55:57.166Z,6.46
2018-01-04T02:56:57.161Z,6.41
2018-01-04T02:57:57.156Z,6.52
2018-01-04T02:58:57.155Z,6.48
2018-01-04T02:59:57.149Z,6.46
2018-01-04T03:00:57.141Z,6.44
2018-01-04T03:01:57.136Z,6.44
2018-01-04T03:02:57.133Z,6.46
2018-01-04T03:03:57.127Z,6.43
2018-01-04T03:04:57.120Z,6.40
2018-01-04T03:05:57.114Z,6.41
2018-01-04T03:06:57.113Z,6.43
2018-01-04T03:07:57.107Z,6.41
2018-01-04T03:08:57.100Z,6.36
2018-01-04T03:09:57.094Z,6.44
2018-01-04T03:10:57.091Z,6.44
2018-01-04T03:11:57.084Z,6.46
2018-01-04T03:12:57.077Z,6.54
2018-01-04T03:13:57.074Z,6.40
2018-01-04T03:14:57.087Z,6.52
2018-01-04T03:15:57.063Z,6.41
2018-01-04T03:16:57.065Z,6.49
2018-01-04T03:17:57.054Z,6.37
2018-01-04T03:18:57.049Z,6.54
2018-01-04T03:19:57.045Z,6.51
2018-01-04T03:20:57.038Z,6.62
2018-01-04T03:21:57.034Z,6.56
2018-01-04T03:22:57.028Z,6.43
2018-01-04T03:23:57.028Z,6.51
2018-01-04T03:24:57.018Z,6.43
2018-01-04T03:25:57.015Z,6.44
2018-01-04T03:26:57.007Z,6.48
2018-01-04T03:27:57.005Z,6.56
2018-01-04T03:28:56.998Z,6.55
2018-01-04T03:29:56.991Z,6.59
2018-01-04T03:30:56.993Z,6.52
2018-01-04T03:31:56.984Z,6.49
2018-01-04T03:32:56.983Z,6.56
2018-01-04T03:33:56.972Z,6.46
2018-01-04T03:34:56.966Z,6.52
2018-01-04T03:35:56.964Z,6.59
2018-01-04T03:36:56.956Z,6.51
2018-01-04T03:37:56.951Z,6.54
2018-01-04T03:38:56.950Z,6.54
2018-01-04T03:39:56.941Z,6.59
2018-01-04T03:40:56.940Z,6.56
2018-01-04T03:41:56.933Z,6.61
2018-01-04T03:42:56.934Z,6.58
2018-01-04T03:43:56.921Z,6.52
2018-01-04T03:44:56.914Z,6.51
2018-01-04T03:45:56.913Z,6.52
2018-01-04T03:46:56.905Z,6.61
2018-01-04T03:47:56.897Z,6.62
2018-01-04T03:48:56.895Z,6.59
2018-01-04T03:49:56.891Z,6.56
2018-01-04T03:50:56.890Z,6.58
2018-01-04T03:51:56.881Z,6.51
2018-01-04T03:52:56.875Z,6.55
2018-01-04T03:53:56.870Z,6.52
2018-01-04T03:54:56.864Z,6.59
2018-01-04T03:55:56.861Z,6.62
2018-01-04T03:56:56.854Z,6.64
2018-01-04T03:57:56.851Z,6.62
2018-01-04T03:58:56.844Z,6.55
2018-01-04T03:59:56.850Z,6.55
2018-01-04T04:00:56.830Z,6.52
2018-01-04T04:01:56.829Z,6.61
2018-01-04T04:02:56.820Z,6.56
2018-01-04T04:03:56.820Z,6.52
2018-01-04T04:04:56.814Z,6.59
2018-01-04T04:05:56.812Z,6.62
2018-01-04T04:06:56.803Z,6.55
2018-01-04T04:07:56.802Z,6.56
2018-01-04T04:08:56.798Z,6.66
2018-01-04T04:09:56.788Z,6.67
2018-01-04T04:10:56.782Z,6.69
2018-01-04T04:11:56.779Z,6.71
2018-01-04T04:12:56.770Z,6.70
2018-01-04T04:13:56.767Z,6.61
2018-01-04T04:14:56.764Z,6.67
2018-01-04T04:15:56.757Z,6.64
2018-01-04T04:16:56.753Z,6.77
2018-01-04T04:17:56.750Z,6.76
2018-01-04T04:18:56.743Z,6.67
2018-01-04T04:19:56.737Z,6.76
2018-01-04T04:20:56.731Z,6.79
2018-01-04T04:21:56.726Z,6.74
2018-01-04T04:22:56.722Z,6.74
2018-01-04T04:23:56.717Z,6.71
2018-01-04T04:24:56.711Z,6.71
2018-01-04T04:25:56.705Z,6.70
2018-01-04T04:26:56.702Z,6.73
2018-01-04T04:27:56.694Z,6.64
2018-01-04T04:28:56.689Z,6.79
2018-01-04T04:29:56.688Z,6.67
2018-01-04T04:30:56.700Z,6.76
2018-01-04T04:31:56.677Z,6.81
2018-01-04T04:32:56.670Z,6.79
2018-01-04T04:33:56.668Z,6.81
2018-01-04T04:34:56.663Z,6.84
2018-01-04T04:35:56.656Z,6.81
2018-01-04T04:36:56.650Z,6.81
2018-01-04T04:37:56.643Z,6.81
2018-01-04T04:38:56.641Z,6.74
2018-01-04T04:39:56.640Z,6.67
2018-01-04T04:40:56.636Z,6.66
2018-01-04T04:41:56.625Z,6.64
2018-01-04T04:42:56.624Z,6.59
2018-01-04T04:43:56.616Z,6.67
2018-01-04T04:44:56.610Z,6.62
2018-01-04T04:45:56.608Z,6.67
2018-01-04T04:46:56.598Z,6.61
2018-01-04T04:47:56.595Z,6.67
2018-01-04T04:48:56.590Z,6.67
2018-01-04T04:49:56.583Z,6.67
2018-01-04T04:50:56.578Z,6.79
2018-01-04T04:51:56.572Z,6.67
2018-01-04T04:52:56.568Z,6.74
2018-01-04T04:53:56.567Z,6.70
2018-01-04T04:54:56.558Z,6.73
2018-01-04T04:55:56.553Z,6.69
2018-01-04T04:56:56.547Z,6.71
2018-01-04T04:57:56.542Z,6.77
2018-01-04T04:58:56.544Z,6.77
2018-01-04T04:59:56.532Z,6.87
2018-01-04T05:00:56.529Z,6.81
2018-01-04T05:01:56.523Z,6.85
2018-01-04T05:02:56.520Z,6.81
2018-01-04T05:03:56.513Z,6.89
2018-01-04T05:04:56.508Z,6.85
2018-01-04T05:05:56.502Z,6.84
2018-01-04T05:06:56.500Z,6.88
2018-01-04T05:07:56.495Z,6.85
2018-01-04T05:08:56.489Z,6.95
2018-01-04T05:09:56.483Z,6.85
2018-01-04T05:10:56.482Z,6.89
2018-01-04T05:11:56.472Z,6.91
2018-01-04T05:12:56.465Z,6.84
2018-01-04T05:13:56.463Z,6.88
2018-01-04T05:14:56.457Z,6.84
2018-01-04T05:15:56.452Z,6.87
2018-01-04T05:16:56.449Z,6.81
2018-01-04T05:17:56.445Z,6.87
2018-01-04T05:18:56.437Z,6.94
2018-01-04T05:19:56.433Z,6.94
2018-01-04T05:20:56.428Z,6.94
2018-01-04T05:21:56.423Z,6.95
2018-01-04T05:22:56.419Z,6.97
2018-01-04T05:23:56.410Z,7.02
2018-01-04T05:24:56.408Z,7.09
2018-01-04T05:25:56.403Z,7.09
2018-01-04T05:26:56.396Z,6.97
2018-01-04T05:27:56.393Z,6.98
2018-01-04T05:28:56.388Z,6.97
2018-01-04T05:29:56.385Z,6.98
2018-01-04T05:30:56.378Z,6.94
2018-01-04T05:31:56.373Z,6.99
2018-01-04T05:32:56.371Z,6.94
2018-01-04T05:33:56.363Z,6.95
2018-01-04T05:34:56.358Z,6.88
2018-01-04T05:35:56.356Z,6.97
2018-01-04T05:36:56.347Z,6.92
2018-01-04T05:37:56.345Z,6.98
2018-01-04T05:38:56.339Z,6.97
2018-01-04T05:39:56.336Z,7.03
2018-01-04T05:40:56.327Z,6.95
2018-01-04T05:41:56.323Z,6.98
2018-01-04T05:42:56.318Z,6.99
2018-01-04T05:43:56.311Z,6.95
2018-01-04T05:44:56.307Z,6.95
2018-01-04T05:45:56.302Z,6.95
2018-01-04T05:46:56.299Z,6.98
2018-01-04T05:47:56.293Z,6.88
2018-01-04T05:48:56.290Z,6.97
2018-01-04T05:49:56.279Z,6.97
2018-01-04T05:50:56.282Z,6.99
2018-01-04T05:51:56.274Z,6.94
2018-01-04T05:52:56.268Z,6.95
2018-01-04T05:53:56.265Z,6.99
2018-01-04T05:54:56.260Z,6.99
2018-01-04T05:55:56.256Z,6.98
2018-01-04T05:56:56.247Z,7.06
2018-01-04T05:57:56.244Z,7.03
2018-01-04T05:58:56.239Z,6.94
2018-01-04T05:59:56.234Z,6.97
2018-01-04T06:00:56.231Z,6.95
2018-01-04T06:01:56.225Z,6.99
2018-01-04T06:02:56.223Z,6.91
2018-01-04T06:03:56.217Z,6.87
2018-01-04T06:04:56.210Z,6.91
2018-01-04T06:05:56.204Z,6.80
2018-01-04T06:06:56.199Z,6.91
2018-01-04T06:07:56.195Z,6.88
2018-01-04T06:08:56.187Z,6.88
2018-01-04T06:09:56.185Z,6.88
2018-01-04T06:10:56.185Z,6.87
2018-01-04T06:11:56.177Z,6.89
2018-01-04T06:12:56.173Z,6.94
2018-01-04T06:13:56.184Z,6.85
2018-01-04T06:14:56.161Z,6.85
2018-01-04T06:15:56.157Z,6.88
2018-01-04T06:16:56.148Z,6.84
2018-01-04T06:17:56.147Z,6.79
2018-01-04T06:18:56.147Z,6.85
2018-01-04T06:19:56.136Z,6.80
2018-01-04T06:20:56.132Z,6.79
2018-01-04T06:21:56.131Z,6.81
2018-01-04T06:22:56.120Z,6.80
2018-01-04T06:23:56.116Z,6.81
2018-01-04T06:24:56.111Z,6.79
2018-01-04T06:25:56.151Z,6.80
2018-01-04T06:26:56.103Z,6.84
2018-01-04T06:27:56.100Z,6.85
2018-01-04T06:28:56.091Z,6.84
2018-01-04T06:29:56.086Z,6.77
2018-01-04T06:30:56.086Z,6.66
2018-01-04T06:31:56.079Z,6.61
2018-01-04T06:32:56.073Z,6.79
2018-01-04T06:33:56.068Z,6.74
2018-01-04T06:34:56.065Z,6.64
2018-01-04T06:35:56.067Z,6.69
2018-01-04T06:36:56.053Z,6.67
2018-01-04T06:37:56.048Z,6.59
2018-01-04T06:38:56.043Z,6.56
2018-01-04T06:39:56.039Z,6.55
2018-01-04T06:40:56.030Z,6.55
2018-01-04T06:41:56.031Z,6.52
2018-01-04T06:42:56.024Z,6.59
2018-01-04T06:43:56.020Z,6.52
2018-01-04T06:44:56.013Z,6.58
2018-01-04T06:45:56.010Z,6.52
2018-01-04T06:46:56.004Z,6.52
2018-01-04T06:47:55.997Z,6.46
2018-01-04T06:48:55.993Z,6.46
2018-01-04T06:49:55.988Z,6.49
2018-01-04T06:50:55.984Z,6.44
2018-01-04T06:51:55.979Z,6.46
2018-01-04T06:52:55.973Z,6.41
2018-01-04T06:53:55.970Z,6.49
2018-01-04T06:54:55.964Z,6.40
2018-01-04T06:55:55.965Z,6.38
2018-01-04T06:56:55.953Z,6.34
2018-01-04T06:57:55.951Z,6.41
2018-01-04T06:58:55.945Z,6.38
2018-01-04T06:59:55.938Z,6.43
2018-01-04T07:00:55.935Z,6.51
2018-01-04T07:01:55.932Z,6.49
2018-01-04T07:02:55.923Z,6.46
2018-01-04T07:03:55.920Z,6.46
2018-01-04T07:04:55.914Z,6.46
2018-01-04T07:05:55.911Z,6.41
2018-01-04T07:06:55.909Z,6.44
2018-01-04T07:07:55.899Z,6.44
2018-01-04T07:08:55.895Z,6.38
2018-01-04T07:09:55.889Z,6.51
2018-01-04T07:10:55.885Z,6.44
2018-01-04T07:11:55.875Z,6.48
2018-01-04T07:12:55.872Z,6.43
2018-01-04T07:13:55.872Z,6.43
2018-01-04T07:14:55.865Z,6.48
2018-01-04T07:15:55.857Z,6.49
2018-01-04T07:16:55.853Z,6.59
2018-01-04T07:17:55.848Z,6.54
2018-01-04T07:18:55.844Z,6.55
2018-01-04T07:19:55.843Z,6.54
2018-01-04T07:20:55.837Z,6.51
2018-01-04T07:21:55.829Z,6.52
2018-01-04T07:22:55.824Z,6.58
2018-01-04T07:23:55.823Z,6.54
2018-01-04T07:24:55.813Z,6.56
2018-01-04T07:25:55.809Z,6.46
2018-01-04T07:26:55.805Z,6.58
2018-01-04T07:27:55.800Z,6.56
2018-01-04T07:28:55.793Z,6.52
2018-01-04T07:29:55.792Z,6.62
2018-01-04T07:30:55.784Z,6.55
2018-01-04T07:31:55.778Z,6.51
2018-01-04T07:32:55.773Z,6.51
2018-01-04T07:33:55.767Z,6.56
2018-01-04T07:34:55.764Z,6.52
2018-01-04T07:35:55.760Z,6.62
2018-01-04T07:36:55.753Z,6.58
2018-01-04T07:37:55.750Z,6.59
2018-01-04T07:38:55.746Z,6.66
2018-01-04T07:39:55.740Z,6.59
2018-01-04T07:40:55.733Z,6.67
2018-01-04T07:41:55.731Z,6.64
2018-01-04T07:42:55.722Z,6.64
2018-01-04T07:43:55.727Z,6.66
2018-01-04T07:44:55.715Z,6.70
2018-01-04T07:45:55.712Z,6.74
2018-01-04T07:46:55.705Z,6.71
2018-01-04T07:47:55.704Z,6.76
2018-01-04T07:48:55.696Z,6.81
2018-01-04T07:49:55.689Z,6.80
2018-01-04T07:50:55.688Z,6.80
2018-01-04T07:51:55.681Z,6.81
2018-01-04T07:52:55.678Z,6.79
2018-01-04T07:53:55.671Z,6.80
2018-01-04T07:54:55.665Z,6.81
2018-01-04T07:55:55.665Z,6.84
2018-01-04T07:56:55.658Z,6.87
2018-01-04T07:57:55.652Z,6.81
2018-01-04T07:58:55.648Z,6.84
2018-01-04T07:59:55.645Z,6.91
2018-01-04T08:00:55.637Z,6.89
2018-01-04T08:01:55.633Z,6.89
2018-01-04T08:02:55.626Z,6.88
2018-01-04T08:03:55.629Z,6.92
2018-01-04T08:04:55.622Z,6.95
2018-01-04T08:05:55.613Z,7.03
2018-01-04T08:06:55.612Z,6.97
2018-01-04T08:07:55.604Z,6.99
2018-01-04T08:08:55.599Z,6.98
2018-01-04T08:09:55.593Z,6.94
2018-01-04T08:10:55.590Z,6.94
2018-01-04T08:11:55.583Z,7.03
2018-01-04T08:12:55.577Z,7.06
2018-01-04T08:13:55.574Z,7.10
2018-01-04T08:14:55.592Z,7.07
2018-01-04T08:15:55.568Z,6.98
2018-01-04T08:16:55.566Z,7.06
2018-01-04T08:17:55.554Z,6.94
2018-01-04T08:18:55.552Z,7.06
2018-01-04T08:19:55.547Z,7.06
2018-01-04T08:20:55.547Z,7.12
2018-01-04T08:21:55.538Z,7.15
2018-01-04T08:22:55.533Z,7.17
2018-01-04T08:23:55.528Z,7.23
2018-01-04T08:24:55.522Z,7.17
2018-01-04T08:25:55.519Z,7.16
2018-01-04T08:26:55.510Z,7.23
2018-01-04T08:27:55.510Z,7.16
2018-01-04T08:28:55.506Z,7.20
2018-01-04T08:29:55.500Z,7.23
2018-01-04T08:30:55.494Z,7.28
2018-01-04T08:31:55.492Z,7.23
2018-01-04T08:32:55.486Z,7.31
2018-01-04T08:33:55.482Z,7.23
2018-01-04T08:34:55.498Z,7.23
2018-01-04T08:35:55.471Z,7.39
2018-01-04T08:36:55.466Z,7.30
2018-01-04T08:37:55.461Z,7.32
2018-01-04T08:38:55.456Z,7.31
2018-01-04T08:39:55.453Z,7.32
2018-01-04T08:40:55.446Z,7.28
2018-01-04T08:41:55.460Z,7.30
2018-01-04T08:42:55.440Z,7.35
2018-01-04T08:43:55.434Z,7.28
2018-01-04T08:44:55.430Z,7.28
2018-01-04T08:45:55.424Z,7.23
2018-01-04T08:46:55.418Z,7.28
2018-01-04T08:47:55.423Z,7.21
2018-01-04T08:48:55.414Z,7.16
2018-01-04T08:49:55.408Z,7.21
2018-01-04T08:50:55.409Z,7.17
2018-01-04T08:51:55.402Z,7.16
2018-01-04T08:52:55.394Z,7.06
2018-01-04T08:53:55.391Z,7.17
2018-01-04T08:54:55.384Z,7.15
2018-01-04T08:55:55.380Z,7.30
2018-01-04T08:56:55.380Z,7.25
2018-01-04T08:57:55.372Z,7.31
2018-01-04T08:58:55.370Z,7.35
2018-01-04T08:59:55.364Z,7.32
2018-01-04T09:00:55.358Z,7.24
2018-01-04T09:01:55.361Z,7.31
2018-01-04T09:02:55.347Z,7.35
2018-01-04T09:03:55.346Z,7.37
2018-01-04T09:04:55.341Z,7.25
2018-01-04T09:05:55.340Z,7.39
2018-01-04T09:06:55.345Z,7.37
2018-01-04T09:07:55.327Z,7.46
2018-01-04T09:08:55.324Z,7.49
2018-01-04T09:09:55.319Z,7.48
2018-01-04T09:10:55.315Z,7.35
2018-01-04T09:11:55.310Z,7.40
2018-01-04T09:12:55.306Z,7.40
2018-01-04T09:13:55.302Z,7.43
2018-01-04T09:14:55.297Z,7.40
2018-01-04T09:15:55.293Z,7.50
2018-01-04T09:16:55.288Z,7.52
2018-01-04T09:17:55.285Z,7.55
2018-01-04T09:18:55.280Z,7.52
2018-01-04T09:19:55.274Z,7.49
2018-01-04T09:20:55.271Z,7.72
2018-01-04T09:21:55.266Z,7.74
2018-01-04T09:22:55.266Z,7.71
2018-01-04T09:23:55.260Z,7.79
2018-01-04T09:24:55.253Z,7.71
2018-01-04T09:25:55.251Z,7.77
2018-01-04T09:26:55.246Z,7.72
2018-01-04T09:27:55.245Z,7.69
2018-01-04T09:28:55.238Z,7.68
2018-01-04T09:29:55.232Z,7.53
2018-01-04T09:30:55.229Z,7.67
2018-01-04T09:31:55.225Z,7.71
2018-01-04T09:32:55.224Z,7.68
2018-01-04T09:33:55.242Z,7.69
2018-01-04T09:34:55.218Z,7.71
2018-01-04T09:35:55.233Z,7.71
2018-01-04T09:36:55.203Z,7.71
2018-01-04T09:37:55.199Z,7.67
2018-01-04T09:38:55.196Z,7.58
2018-01-04T09:39:55.194Z,7.67
2018-01-04T09:40:55.188Z,7.55
2018-01-04T09:41:55.185Z,7.52
2018-01-04T09:42:55.185Z,7.61
2018-01-04T09:43:55.174Z,7.63
2018-01-04T09:44:55.171Z,7.60
2018-01-04T09:45:55.167Z,7.57
2018-01-04T09:46:55.168Z,7.55
2018-01-04T09:47:55.159Z,7.55
2018-01-04T09:48:55.157Z,7.50
2018-01-04T09:49:55.150Z,7.67
2018-01-04T09:50:55.147Z,7.58
2018-01-04T09:51:55.139Z,7.55
2018-01-04T09:52:55.145Z,7.48
2018-01-04T09:53:55.136Z,7.55
2018-01-04T09:54:55.132Z,7.53
2018-01-04T09:55:55.126Z,7.68
2018-01-04T09:56:55.121Z,7.77
2018-01-04T09:57:55.117Z,7.71
2018-01-04T09:58:55.109Z,7.75
2018-01-04T09:59:55.105Z,7.74
2018-01-04T10:00:55.111Z,7.75
2018-01-04T10:01:55.099Z,7.71
2018-01-04T10:02:55.095Z,7.71
2018-01-04T10:03:55.093Z,7.74
2018-01-04T10:04:55.087Z,7.86
2018-01-04T10:05:55.083Z,7.74
2018-01-04T10:06:55.079Z,7.79
2018-01-04T10:07:55.077Z,7.83
2018-01-04T10:08:55.071Z,7.82
2018-01-04T10:09:55.069Z,7.80
2018-01-04T10:10:55.072Z,7.92
2018-01-04T10:11:55.061Z,7.79
2018-01-04T10:12:55.053Z,7.79
2018-01-04T10:13:55.050Z,7.80
2018-01-04T10:14:55.046Z,7.80
2018-01-04T10:15:55.041Z,7.79
2018-01-04T10:16:55.037Z,7.75
2018-01-04T10:17:55.034Z,7.80
2018-01-04T10:18:55.031Z,7.86
2018-01-04T10:19:55.029Z,7.68
2018-01-04T10:20:55.021Z,7.83
2018-01-04T10:21:55.023Z,7.69
2018-01-04T10:22:55.015Z,7.72
2018-01-04T10:23:55.008Z,7.74
2018-01-04T10:24:55.005Z,7.68
2018-01-04T10:25:55.001Z,7.64
2018-01-04T10:26:54.996Z,7.71
2018-01-04T10:27:54.992Z,7.71
2018-01-04T10:28:54.990Z,7.77
2018-01-04T10:29:54.983Z,7.87
2018-01-04T10:30:54.980Z,7.82
2018-01-04T10:31:55.038Z,7.83
2018-01-04T10:32:54.974Z,7.85
2018-01-04T10:33:54.966Z,7.77
2018-01-04T10:34:54.964Z,7.82
2018-01-04T10:35:54.959Z,7.89
2018-01-04T10:36:55.001Z,7.87
2018-01-04T10:37:54.951Z,7.89
2018-01-04T10:38:54.945Z,7.98
2018-01-04T10:39:55.007Z,7.92
2018-01-04T10:40:54.938Z,7.98
2018-01-04T10:41:54.936Z,7.90
2018-01-04T10:42:54.929Z,7.95
2018-01-04T10:43:54.930Z,8.02
2018-01-04T10:44:54.922Z,8.05
2018-01-04T10:45:54.918Z,8.05
2018-01-04T10:46:54.917Z,8.07
2018-01-04T10:47:54.911Z,8.04
2018-01-04T10:48:54.905Z,8.05
2018-01-04T10:49:54.901Z,8.05
2018-01-04T10:50:54.898Z,8.08
2018-01-04T10:51:54.896Z,8.11
2018-01-04T10:52:54.907Z,8.11
2018-01-04T10:53:54.885Z,8.11
2018-01-04T10:54:54.882Z,8.18
2018-01-04T10:55:54.882Z,8.11
2018-01-04T10:56:54.877Z,8.12
2018-01-04T10:57:54.869Z,8.05
2018-01-04T10:58:54.866Z,8.00
2018-01-04T10:59:54.861Z,8.04
2018-01-04T11:00:54.857Z,8.00
2018-01-04T11:01:54.852Z,7.93
2018-01-04T11:02:54.851Z,7.93
2018-01-04T11:03:54.849Z,8.01
2018-01-04T11:04:54.841Z,7.97
2018-01-04T11:05:54.839Z,8.00
2018-01-04T11:06:54.836Z,8.04
2018-01-04T11:07:54.830Z,8.12
2018-01-04T11:08:54.825Z,8.12
2018-01-04T11:09:54.825Z,8.15
2018-01-04T11:10:54.818Z,8.20
2018-01-04T11:11:54.827Z,8.19
2018-01-04T11:12:54.812Z,8.15
2018-01-04T11:13:54.805Z,8.18
2018-01-04T11:14:54.804Z,8.15
2018-01-04T11:15:54.797Z,8.18
2018-01-04T11:16:54.794Z,8.22
2018-01-04T11:17:54.789Z,8.18
2018-01-04T11:18:54.786Z,8.18
2018-01-04T11:19:54.788Z,8.22
2018-01-04T11:20:54.781Z,8.23
2018-01-04T11:21:54.777Z,8.22
2018-01-04T11:22:54.772Z,8.33
2018-01-04T11:23:54.772Z,8.34
2018-01-04T11:24:54.764Z,8.36
2018-01-04T11:25:54.813Z,8.43
2018-01-04T11:26:54.755Z,8.47
2018-01-04T11:27:54.752Z,8.41
2018-01-04T11:28:54.749Z,8.34
2018-01-04T11:29:54.745Z,8.40
2018-01-04T11:30:54.740Z,8.38
2018-01-04T11:31:54.749Z,8.40
2018-01-04T11:32:54.736Z,8.29
2018-01-04T11:33:54.726Z,8.34
2018-01-04T11:34:54.728Z,8.36
2018-01-04T11:35:54.725Z,8.22
2018-01-04T11:36:54.716Z,8.29
2018-01-04T11:37:54.715Z,8.18
2018-01-04T11:38:54.711Z,8.23
2018-01-04T11:39:54.709Z,8.16
2018-01-04T11:40:54.705Z,8.23
2018-01-04T11:41:54.702Z,8.10
2018-01-04T11:42:54.702Z,8.19
2018-01-04T11:43:54.693Z,8.11
2018-01-04T11:44:54.690Z,8.15
2018-01-04T11:45:54.684Z,8.23
2018-01-04T11:46:54.684Z,8.20
2018-01-04T11:47:54.682Z,8.29
2018-01-04T11:48:54.674Z,8.30
2018-01-04T11:49:54.669Z,8.41
2018-01-04T11:50:54.667Z,8.43
2018-01-04T11:51:54.664Z,8.33
2018-01-04T11:52:54.661Z,8.34
2018-01-04T11:53:54.656Z,8.34
2018-01-04T11:54:54.665Z,8.36
2018-01-04T11:55:54.648Z,8.38
2018-01-04T11:56:54.645Z,8.37
2018-01-04T11:57:54.644Z,8.34
2018-01-04T11:58:54.639Z,8.18
2018-01-04T11:59:54.635Z,8.22
2018-01-04T12:00:54.630Z,8.30
2018-01-04T12:01:54.659Z,8.34
2018-01-04T12:02:54.622Z,8.36
2018-01-04T12:03:54.621Z,8.36
2018-01-04T12:04:54.616Z,8.34
2018-01-04T12:05:54.614Z,8.30
2018-01-04T12:06:54.649Z,8.43
2018-01-04T12:07:54.606Z,8.40
2018-01-04T12:08:54.648Z,8.41
2018-01-04T12:09:54.597Z,8.41
2018-01-04T12:10:54.594Z,8.48
2018-01-04T12:11:54.592Z,8.50
2018-01-04T12:12:54.589Z,8.50
2018-01-04T12:13:54.587Z,8.55
2018-01-04T12:14:54.579Z,8.55
2018-01-04T12:15:54.574Z,8.61
2018-01-04T12:16:54.573Z,8.55
2018-01-04T12:17:54.568Z,8.53
2018-01-04T12:18:54.572Z,8.45
2018-01-04T12:19:54.564Z,8.45
2018-01-04T12:20:54.556Z,8.45
2018-01-04T12:21:54.555Z,8.47
2018-01-04T12:22:54.550Z,8.40
2018-01-04T12:23:54.549Z,8.45
2018-01-04T12:24:54.575Z,8.44
2018-01-04T12:25:54.541Z,8.43
2018-01-04T12:26:54.540Z,8.44
2018-01-04T12:27:54.533Z,8.48
2018-01-04T12:28:54.528Z,8.56
2018-01-04T12:29:54.522Z,8.56
2018-01-04T12:30:54.523Z,8.43
2018-01-04T12:31:54.519Z,8.45
2018-01-04T12:32:54.515Z,8.45
2018-01-04T12:33:54.512Z,8.38
2018-01-04T12:34:54.512Z,8.45
2018-01-04T12:35:54.506Z,8.53
2018-01-04T12:36:54.499Z,8.59
2018-01-04T12:37:54.496Z,8.47
2018-01-04T12:38:54.497Z,8.55
2018-01-04T12:39:54.490Z,8.44
2018-01-04T12:40:54.486Z,8.50
2018-01-04T12:41:54.481Z,8.44
2018-01-04T12:42:54.479Z,8.48
2018-01-04T12:43:54.476Z,8.53
2018-01-04T12:44:54.475Z,8.40
2018-01-04T12:45:54.472Z,8.45
2018-01-04T12:46:54.465Z,8.47
2018-01-04T12:47:54.466Z,8.55
2018-01-04T12:48:54.459Z,8.45
2018-01-04T12:49:54.452Z,8.38
2018-01-04T12:50:54.451Z,8.47
2018-01-04T12:51:54.446Z,8.43
2018-01-04T12:52:54.460Z,8.44
2018-01-04T12:53:54.441Z,8.47
2018-01-04T12:54:54.439Z,8.47
2018-01-04T12:55:54.432Z,8.38
2018-01-04T12:56:54.425Z,8.43
2018-01-04T12:57:54.426Z,8.41
2018-01-04T12:58:54.425Z,8.40
2018-01-04T12:59:54.415Z,8.40
2018-01-04T13:00:54.418Z,8.40
2018-01-04T13:01:54.411Z,8.37
2018-01-04T13:02:54.496Z,8.43
2018-01-04T13:03:54.405Z,8.38
2018-01-04T13:04:54.402Z,8.41
2018-01-04T13:05:54.397Z,8.28
2018-01-04T13:06:54.393Z,8.20
2018-01-04T13:07:54.390Z,8.25
2018-01-04T13:08:54.391Z,8.33
2018-01-04T13:09:54.381Z,8.11
2018-01-04T13:10:54.379Z,8.18
2018-01-04T13:11:54.377Z,8.20
2018-01-04T13:12:54.370Z,8.22
2018-01-04T13:13:54.369Z,8.20
2018-01-04T13:14:54.365Z,8.16
2018-01-04T13:15:54.369Z,8.26
2018-01-04T13:16:54.358Z,8.20
2018-01-04T13:17:54.353Z,8.20
2018-01-04T13:18:54.352Z,8.20